Time;durP1;ratioP1;P1;durP2;ratioP2;P2;SDS_P1;SDS_P2;PMS_P1;PMS_P2;Temp;Humidity;BMP_temperature;BMP_pressure;BME280_temperature;BME280_humidity;BME280_pressure;Samples;Min_cycle;Max_cycle;Signal;HPM_P1;HPM_P2
2022/12/12 00:00:54;;;;;;;56.38;30.40;;;;;;;;;;5075131;28;20419;-83
2022/12/12 00:03:22;;;;;;;66.10;30.15;;;;;;;;;;5070850;28;20407;-83
2022/12/12 00:05:53;;;;;;;52.42;28.42;;;;;;;;;;5073226;28;20417;-85
2022/12/12 00:08:19;;;;;;;59.33;29.88;;;;;;;;;;5068949;28;20427;-83
2022/12/12 00:10:46;;;;;;;59.30;31.13;;;;;;;;;;5072172;28;20425;-83
2022/12/12 00:13:12;;;;;;;53.25;29.73;;;;;;;;;;5071862;28;20421;-86
2022/12/12 00:15:38;;;;;;;60.65;31.15;;;;;;;;;;5072902;28;20429;-84
2022/12/12 00:18:05;;;;;;;60.42;31.05;;;;;;;;;;5070925;28;20412;-84
2022/12/12 00:20:32;;;;;;;61.88;30.23;;;;;;;;;;5070834;28;20429;-83
2022/12/12 00:22:59;;;;;;;56.97;29.70;;;;;;;;;;5071629;28;20403;-85
2022/12/12 00:25:25;;;;;;;60.80;31.15;;;;;;;;;;5069642;28;20427;-83
2022/12/12 00:27:51;;;;;;;64.22;32.20;;;;;;;;;;5071322;28;20431;-83
2022/12/12 00:30:18;;;;;;;64.63;32.70;;;;;;;;;;5071243;28;20425;-83
2022/12/12 00:32:44;;;;;;;59.83;32.40;;;;;;;;;;5070804;28;20450;-83
2022/12/12 00:35:10;;;;;;;57.97;32.85;;;;;;;;;;5067683;28;20436;-83
2022/12/12 00:37:38;;;;;;;61.78;32.97;;;;;;;;;;5069590;28;20834;-83
2022/12/12 00:40:05;;;;;;;60.65;32.05;;;;;;;;;;5066413;28;20424;-83
2022/12/12 00:42:31;;;;;;;62.60;32.47;;;;;;;;;;5070908;28;20918;-83
2022/12/12 00:44:58;;;;;;;64.82;33.85;;;;;;;;;;5071594;28;20401;-84
2022/12/12 00:47:24;;;;;;;66.00;32.97;;;;;;;;;;5072838;28;20414;-82
2022/12/12 00:49:50;;;;;;;59.58;31.23;;;;;;;;;;5069680;28;20420;-83
2022/12/12 00:52:17;;;;;;;55.88;29.30;;;;;;;;;;5069471;28;20896;-83
2022/12/12 00:54:44;;;;;;;55.47;29.33;;;;;;;;;;5073169;28;20417;-83
2022/12/12 00:57:11;;;;;;;57.58;30.05;;;;;;;;;;5074689;28;20420;-83
2022/12/12 00:59:37;;;;;;;55.07;29.07;;;;;;;;;;5071051;28;20428;-83
2022/12/12 01:02:03;;;;;;;56.08;31.55;;;;;;;;;;5069591;28;20429;-83
2022/12/12 01:04:30;;;;;;;63.55;32.13;;;;;;;;;;5070666;28;20428;-83
2022/12/12 01:06:56;;;;;;;61.65;31.38;;;;;;;;;;5073448;28;20427;-83
2022/12/12 01:09:23;;;;;;;59.55;30.60;;;;;;;;;;5070183;28;20428;-85
2022/12/12 01:11:51;;;;;;;63.42;30.98;;;;;;;;;;5070400;28;20428;-83
2022/12/12 01:14:17;;;;;;;59.70;30.80;;;;;;;;;;5072402;28;20427;-83
2022/12/12 01:16:43;;;;;;;61.65;29.40;;;;;;;;;;5070887;28;20433;-83
2022/12/12 01:19:10;;;;;;;56.92;30.10;;;;;;;;;;5067606;28;20422;-83
2022/12/12 01:21:36;;;;;;;60.75;31.60;;;;;;;;;;5073014;28;20419;-84
2022/12/12 01:24:03;;;;;;;57.00;29.88;;;;;;;;;;5073754;28;20426;-86
2022/12/12 01:26:29;;;;;;;62.30;31.05;;;;;;;;;;5071727;28;20427;-83
2022/12/12 01:28:57;;;;;;;59.80;31.35;;;;;;;;;;5070370;28;20419;-83
2022/12/12 01:31:23;;;;;;;51.92;29.83;;;;;;;;;;5069252;28;20432;-82
2022/12/12 01:33:50;;;;;;;53.05;28.42;;;;;;;;;;5070650;28;20427;-84
2022/12/12 01:36:18;;;;;;;52.80;29.27;;;;;;;;;;5075924;28;20453;-83
2022/12/12 01:38:44;;;;;;;53.90;29.42;;;;;;;;;;5073558;28;20433;-83
2022/12/12 01:41:11;;;;;;;56.05;29.13;;;;;;;;;;5071943;28;20431;-84
2022/12/12 01:43:37;;;;;;;61.97;32.35;;;;;;;;;;5079330;28;20434;-84
2022/12/12 01:46:18;;;;;;;63.03;30.95;;;;;;;;;;5073935;28;20427;-83
2022/12/12 01:48:49;;;;;;;61.85;31.80;;;;;;;;;;5075178;28;20437;-83
2022/12/12 01:51:16;;;;;;;58.40;31.25;;;;;;;;;;5075390;28;20420;-84
2022/12/12 01:53:43;;;;;;;62.70;31.40;;;;;;;;;;5076257;28;20417;-82
2022/12/12 01:56:11;;;;;;;64.22;33.15;;;;;;;;;;5074013;28;20428;-83
2022/12/12 01:58:39;;;;;;;67.22;33.10;;;;;;;;;;5078189;28;20403;-83
2022/12/12 02:01:05;;;;;;;63.17;33.05;;;;;;;;;;5077506;28;20424;-82
2022/12/12 02:03:32;;;;;;;63.40;33.58;;;;;;;;;;5071815;28;20422;-86
2022/12/12 02:06:02;;;;;;;66.13;31.55;;;;;;;;;;5075597;28;20438;-83
2022/12/12 02:08:29;;;;;;;62.85;33.67;;;;;;;;;;5072751;28;20425;-83
2022/12/12 02:10:55;;;;;;;58.53;31.38;;;;;;;;;;5076583;28;20475;-84
2022/12/12 02:13:23;;;;;;;60.70;32.33;;;;;;;;;;5073142;28;20415;-82
2022/12/12 02:15:58;;;;;;;63.17;32.25;;;;;;;;;;5077325;28;20407;-84
2022/12/12 02:18:28;;;;;;;65.63;33.78;;;;;;;;;;5073729;28;20701;-82
2022/12/12 02:21:01;;;;;;;58.67;31.95;;;;;;;;;;5074591;28;20425;-83
2022/12/12 02:23:46;;;;;;;59.08;31.98;;;;;;;;;;5073046;28;20422;-84
2022/12/12 02:26:31;;;;;;;62.72;32.25;;;;;;;;;;5074855;28;20433;-82
2022/12/12 02:29:07;;;;;;;64.70;33.55;;;;;;;;;;5074197;28;20759;-83
2022/12/12 02:31:40;;;;;;;59.78;31.35;;;;;;;;;;5078182;28;20433;-82
2022/12/12 02:34:09;;;;;;;57.63;30.90;;;;;;;;;;5071738;28;20419;-83
2022/12/12 02:36:38;;;;;;;61.10;31.33;;;;;;;;;;5074701;28;20430;-82
2022/12/12 02:39:06;;;;;;;59.72;31.40;;;;;;;;;;5071058;28;20436;-84
2022/12/12 02:41:36;;;;;;;63.03;32.40;;;;;;;;;;5076054;28;20456;-83
2022/12/12 02:44:08;;;;;;;60.20;31.37;;;;;;;;;;5077199;28;20433;-84
2022/12/12 02:46:38;;;;;;;59.47;30.63;;;;;;;;;;5074010;28;20508;-82
2022/12/12 02:49:06;;;;;;;59.45;30.92;;;;;;;;;;5074993;28;20413;-83
2022/12/12 02:51:34;;;;;;;68.38;32.13;;;;;;;;;;5074857;28;20409;-83
2022/12/12 02:54:03;;;;;;;60.92;30.80;;;;;;;;;;5075045;28;20814;-84
2022/12/12 02:56:43;;;;;;;55.65;30.05;;;;;;;;;;5074012;28;20431;-82
2022/12/12 02:59:12;;;;;;;63.90;32.13;;;;;;;;;;5076743;28;20421;-83
2022/12/12 03:01:42;;;;;;;61.22;30.58;;;;;;;;;;5074165;28;20431;-82
2022/12/12 03:09:56;;;;;;;54.70;28.38;;;;;;;;;;5074252;28;20423;-82
2022/12/12 03:12:26;;;;;;;65.53;32.42;;;;;;;;;;5076338;28;20431;-82
2022/12/12 03:14:54;;;;;;;59.45;30.48;;;;;;;;;;5070991;28;20424;-82
2022/12/12 03:17:25;;;;;;;56.20;30.70;;;;;;;;;;5078385;28;20427;-82
2022/12/12 03:19:55;;;;;;;63.17;31.63;;;;;;;;;;5074116;28;20424;-83
2022/12/12 03:22:24;;;;;;;64.18;30.45;;;;;;;;;;5073667;28;20459;-82
2022/12/12 03:24:52;;;;;;;57.17;29.20;;;;;;;;;;5071824;28;20516;-82
2022/12/12 03:27:24;;;;;;;54.47;29.92;;;;;;;;;;5072160;28;20932;-82
2022/12/12 03:29:53;;;;;;;61.83;32.60;;;;;;;;;;5075882;28;20417;-84
2022/12/12 03:32:23;;;;;;;62.85;31.48;;;;;;;;;;5069023;28;20436;-82
2022/12/12 03:34:54;;;;;;;63.07;31.37;;;;;;;;;;5074820;28;20432;-82
2022/12/12 03:37:23;;;;;;;57.67;30.95;;;;;;;;;;5072164;28;20428;-83
2022/12/12 03:39:50;;;;;;;57.55;30.45;;;;;;;;;;5072180;28;20423;-83
2022/12/12 03:42:21;;;;;;;60.70;31.27;;;;;;;;;;5075656;28;20503;-83
2022/12/12 03:44:51;;;;;;;59.58;30.98;;;;;;;;;;5077180;28;20490;-82
2022/12/12 03:47:20;;;;;;;62.10;30.67;;;;;;;;;;5073975;28;20411;-82
2022/12/12 03:49:49;;;;;;;62.22;30.73;;;;;;;;;;5072698;28;20430;-82
2022/12/12 03:52:19;;;;;;;56.60;29.40;;;;;;;;;;5073083;28;20428;-83
2022/12/12 03:54:47;;;;;;;60.25;29.67;;;;;;;;;;5072630;28;20425;-83
2022/12/12 03:57:18;;;;;;;57.42;29.88;;;;;;;;;;5072107;28;20936;-83
2022/12/12 03:59:45;;;;;;;61.30;31.33;;;;;;;;;;5074474;28;20426;-82
2022/12/12 04:02:14;;;;;;;61.28;29.65;;;;;;;;;;5077967;28;20910;-83
2022/12/12 04:04:43;;;;;;;59.58;30.13;;;;;;;;;;5075420;28;20419;-82
2022/12/12 04:07:12;;;;;;;62.25;33.13;;;;;;;;;;5072648;28;20436;-82
2022/12/12 04:15:19;;;;;;;57.65;30.83;;;;;;;;;;5072418;28;20438;-82
2022/12/12 04:17:49;;;;;;;57.33;30.27;;;;;;;;;;5069344;28;20949;-83
2022/12/12 04:23:16;;;;;;;60.42;31.50;;;;;;;;;;5071328;28;20467;-82
2022/12/12 04:28:32;;;;;;;61.45;31.98;;;;;;;;;;5068134;28;20791;-82
2022/12/12 04:31:01;;;;;;;57.97;31.10;;;;;;;;;;5072117;28;20433;-82
2022/12/12 04:33:30;;;;;;;64.13;32.55;;;;;;;;;;5072789;28;20480;-81
2022/12/12 04:35:58;;;;;;;63.00;32.17;;;;;;;;;;5072422;28;20417;-82
2022/12/12 04:38:25;;;;;;;57.30;31.53;;;;;;;;;;5071214;28;20422;-82
2022/12/12 04:40:54;;;;;;;60.72;31.02;;;;;;;;;;5071194;28;20436;-85
2022/12/12 04:43:22;;;;;;;60.97;30.65;;;;;;;;;;5075509;28;20413;-82
2022/12/12 04:45:50;;;;;;;63.15;33.83;;;;;;;;;;5077474;28;20420;-82
2022/12/12 04:48:18;;;;;;;62.70;31.17;;;;;;;;;;5073896;28;20409;-82
2022/12/12 04:50:47;;;;;;;73.00;32.20;;;;;;;;;;5072766;28;20490;-82
2022/12/12 04:53:15;;;;;;;58.10;29.88;;;;;;;;;;5071179;28;20439;-82
2022/12/12 04:55:43;;;;;;;60.47;29.55;;;;;;;;;;5072000;28;20433;-82
2022/12/12 04:58:11;;;;;;;60.72;30.75;;;;;;;;;;5070930;28;20410;-82
2022/12/12 05:00:40;;;;;;;60.20;30.67;;;;;;;;;;5068478;28;20524;-86
2022/12/12 05:03:10;;;;;;;54.33;28.77;;;;;;;;;;5072466;28;20411;-84
2022/12/12 05:05:40;;;;;;;56.85;30.30;;;;;;;;;;5071591;28;20537;-82
2022/12/12 05:08:07;;;;;;;60.35;30.50;;;;;;;;;;5071360;28;20421;-82
2022/12/12 05:10:34;;;;;;;60.15;30.30;;;;;;;;;;5071741;28;20493;-82
2022/12/12 05:13:00;;;;;;;60.30;29.85;;;;;;;;;;5069596;28;20422;-85
2022/12/12 05:15:28;;;;;;;57.63;29.55;;;;;;;;;;5071353;28;20419;-83
2022/12/12 05:17:57;;;;;;;65.72;32.10;;;;;;;;;;5068956;28;20429;-82
2022/12/12 05:20:24;;;;;;;59.97;31.42;;;;;;;;;;5069030;28;20405;-83
2022/12/12 05:22:50;;;;;;;60.90;30.35;;;;;;;;;;5073983;28;20790;-82
2022/12/12 05:25:17;;;;;;;59.53;31.15;;;;;;;;;;5071349;28;20429;-81
2022/12/12 05:27:43;;;;;;;61.10;31.05;;;;;;;;;;5072619;28;20443;-82
2022/12/12 05:30:11;;;;;;;58.00;31.00;;;;;;;;;;5074229;28;20430;-82
2022/12/12 05:32:39;;;;;;;55.45;29.98;;;;;;;;;;5069252;28;20465;-81
2022/12/12 05:35:06;;;;;;;65.22;31.95;;;;;;;;;;5072534;28;20430;-82
2022/12/12 05:37:32;;;;;;;65.30;32.33;;;;;;;;;;5071041;28;20429;-82
2022/12/12 05:39:58;;;;;;;61.75;31.63;;;;;;;;;;5074142;28;20426;-82
2022/12/12 05:42:25;;;;;;;61.93;30.80;;;;;;;;;;5068305;28;20427;-83
2022/12/12 05:44:51;;;;;;;61.28;31.50;;;;;;;;;;5065362;28;20415;-81
2022/12/12 05:47:18;;;;;;;59.03;31.60;;;;;;;;;;5071023;28;20438;-84
2022/12/12 05:49:45;;;;;;;63.90;33.38;;;;;;;;;;5072192;28;20421;-82
2022/12/12 05:52:12;;;;;;;60.60;31.60;;;;;;;;;;5070570;28;20415;-82
2022/12/12 05:54:39;;;;;;;60.60;30.50;;;;;;;;;;5070478;28;20905;-81
2022/12/12 05:57:05;;;;;;;65.30;30.88;;;;;;;;;;5068883;28;20425;-83
2022/12/12 05:59:31;;;;;;;59.35;31.98;;;;;;;;;;5070534;28;20421;-84
2022/12/12 06:01:58;;;;;;;67.75;34.53;;;;;;;;;;5074848;28;20423;-82
2022/12/12 06:04:25;;;;;;;67.63;32.92;;;;;;;;;;5066621;28;20436;-82
2022/12/12 06:06:53;;;;;;;64.55;34.13;;;;;;;;;;5069063;28;20416;-82
2022/12/12 06:09:19;;;;;;;69.75;34.92;;;;;;;;;;5073654;28;20489;-83
2022/12/12 06:11:46;;;;;;;65.50;33.38;;;;;;;;;;5071972;28;20524;-82
2022/12/12 06:14:12;;;;;;;70.82;35.97;;;;;;;;;;5072468;28;20420;-81
2022/12/12 06:16:41;;;;;;;71.60;35.50;;;;;;;;;;5068543;28;20422;-83
2022/12/12 06:19:08;;;;;;;84.88;39.38;;;;;;;;;;5071730;28;20427;-81
2022/12/12 06:21:34;;;;;;;83.25;39.28;;;;;;;;;;5073779;28;20934;-82
2022/12/12 06:24:02;;;;;;;78.43;39.38;;;;;;;;;;5069755;28;20802;-80
2022/12/12 06:26:28;;;;;;;64.20;33.72;;;;;;;;;;5069739;28;20409;-82
2022/12/12 06:28:55;;;;;;;65.60;33.35;;;;;;;;;;5077944;28;20923;-81
2022/12/12 06:31:21;;;;;;;65.80;34.20;;;;;;;;;;5077401;28;20768;-82
2022/12/12 06:33:48;;;;;;;62.95;32.88;;;;;;;;;;5076994;28;20488;-81
2022/12/12 06:36:21;;;;;;;69.60;34.50;;;;;;;;;;5076622;28;20429;-81
2022/12/12 06:38:47;;;;;;;63.83;34.67;;;;;;;;;;5076078;28;20414;-81
2022/12/12 06:41:15;;;;;;;66.72;34.20;;;;;;;;;;5075320;28;20419;-81
2022/12/12 06:43:42;;;;;;;60.88;34.00;;;;;;;;;;5073201;28;20412;-81
2022/12/12 06:46:10;;;;;;;63.50;32.47;;;;;;;;;;5079463;28;20495;-81
2022/12/12 06:48:36;;;;;;;59.70;32.63;;;;;;;;;;5074556;28;20418;-82
2022/12/12 06:51:05;;;;;;;61.13;32.97;;;;;;;;;;5073774;28;20434;-81
2022/12/12 06:53:31;;;;;;;61.07;32.20;;;;;;;;;;5074255;28;20421;-81
2022/12/12 06:55:58;;;;;;;67.07;34.63;;;;;;;;;;5075436;28;20503;-81
2022/12/12 06:58:27;;;;;;;63.83;33.92;;;;;;;;;;5077285;28;20413;-81
2022/12/12 07:00:53;;;;;;;64.57;33.47;;;;;;;;;;5076613;28;20469;-81
2022/12/12 07:03:22;;;;;;;62.25;31.90;;;;;;;;;;5076539;28;20408;-81
2022/12/12 07:05:48;;;;;;;63.28;31.98;;;;;;;;;;5074949;28;20417;-81
2022/12/12 07:08:14;;;;;;;62.90;31.67;;;;;;;;;;5075181;28;20405;-81
2022/12/12 07:10:42;;;;;;;67.43;33.80;;;;;;;;;;5074338;28;20413;-81
2022/12/12 07:13:09;;;;;;;59.75;31.77;;;;;;;;;;5073716;28;20418;-81
2022/12/12 07:15:42;;;;;;;61.88;32.50;;;;;;;;;;5077387;28;20427;-81
2022/12/12 07:18:08;;;;;;;64.28;33.50;;;;;;;;;;5072574;28;20468;-81
2022/12/12 07:20:37;;;;;;;66.47;35.17;;;;;;;;;;5076052;28;20413;-81
2022/12/12 07:23:04;;;;;;;65.90;35.17;;;;;;;;;;5074892;28;20424;-81
2022/12/12 07:25:30;;;;;;;67.07;34.67;;;;;;;;;;5075157;28;20435;-81
2022/12/12 07:27:56;;;;;;;69.55;33.30;;;;;;;;;;5076538;28;20408;-81
2022/12/12 07:30:23;;;;;;;69.55;33.92;;;;;;;;;;5073823;28;20413;-81
2022/12/12 07:32:52;;;;;;;61.27;32.27;;;;;;;;;;5078165;28;20489;-81
2022/12/12 07:35:18;;;;;;;62.55;33.10;;;;;;;;;;5076699;28;20429;-82
2022/12/12 07:37:46;;;;;;;59.83;32.50;;;;;;;;;;5077918;28;20464;-81
2022/12/12 07:40:12;;;;;;;60.17;31.67;;;;;;;;;;5072334;28;20419;-81
2022/12/12 07:42:38;;;;;;;67.75;33.65;;;;;;;;;;5073607;28;20421;-81
2022/12/12 07:45:05;;;;;;;63.58;32.40;;;;;;;;;;5073563;28;20405;-81
2022/12/12 07:47:32;;;;;;;64.10;34.30;;;;;;;;;;5072917;28;20950;-81
2022/12/12 07:49:59;;;;;;;61.45;32.00;;;;;;;;;;5069668;28;20431;-81
2022/12/12 07:52:26;;;;;;;65.33;33.63;;;;;;;;;;5074077;28;20423;-81
2022/12/12 07:54:52;;;;;;;70.25;33.60;;;;;;;;;;5074830;28;20784;-82
2022/12/12 07:57:18;;;;;;;67.18;34.15;;;;;;;;;;5072351;28;20425;-80
2022/12/12 07:59:45;;;;;;;62.33;34.60;;;;;;;;;;5071908;28;20828;-81
2022/12/12 08:02:11;;;;;;;69.95;37.97;;;;;;;;;;5074386;28;20413;-81
2022/12/12 08:04:37;;;;;;;77.75;39.95;;;;;;;;;;5073738;28;20425;-82
2022/12/12 08:07:05;;;;;;;75.28;36.97;;;;;;;;;;5077519;28;20403;-81
2022/12/12 08:09:33;;;;;;;74.40;40.53;;;;;;;;;;5070723;28;20422;-81
2022/12/12 08:11:59;;;;;;;74.85;38.25;;;;;;;;;;5076449;28;20406;-82
2022/12/12 08:14:25;;;;;;;71.45;38.95;;;;;;;;;;5073422;28;20422;-81
2022/12/12 08:16:52;;;;;;;81.22;41.33;;;;;;;;;;5074107;28;20429;-81
2022/12/12 08:19:18;;;;;;;77.72;39.40;;;;;;;;;;5073236;28;20409;-81
2022/12/12 08:21:45;;;;;;;78.63;40.38;;;;;;;;;;5069000;28;20814;-80
2022/12/12 08:24:13;;;;;;;83.15;41.33;;;;;;;;;;5073958;28;20424;-81
2022/12/12 08:26:40;;;;;;;69.82;38.72;;;;;;;;;;5071966;28;20425;-81
2022/12/12 08:29:06;;;;;;;73.05;38.42;;;;;;;;;;5072996;28;20418;-81
2022/12/12 08:31:33;;;;;;;77.22;40.67;;;;;;;;;;5072135;28;20473;-81
2022/12/12 08:34:00;;;;;;;79.75;39.78;;;;;;;;;;5071542;28;20422;-81
2022/12/12 08:36:28;;;;;;;84.55;42.60;;;;;;;;;;5074223;28;20424;-81
2022/12/12 08:38:55;;;;;;;77.90;39.13;;;;;;;;;;5069954;28;20439;-81
2022/12/12 08:41:23;;;;;;;77.00;39.63;;;;;;;;;;5068990;28;20485;-81
2022/12/12 08:43:50;;;;;;;78.05;40.30;;;;;;;;;;5071683;28;20411;-82
2022/12/12 08:46:17;;;;;;;82.78;41.50;;;;;;;;;;5074329;28;20498;-81
2022/12/12 08:48:44;;;;;;;78.47;42.53;;;;;;;;;;5071321;28;20414;-81
2022/12/12 08:51:10;;;;;;;76.65;39.95;;;;;;;;;;5073084;28;20421;-82
2022/12/12 08:53:37;;;;;;;77.10;40.10;;;;;;;;;;5071450;28;20427;-81
2022/12/12 08:56:03;;;;;;;77.88;41.75;;;;;;;;;;5071319;28;20436;-84
2022/12/12 08:58:31;;;;;;;72.10;39.35;;;;;;;;;;5074442;28;20428;-81
2022/12/12 09:00:57;;;;;;;76.45;39.85;;;;;;;;;;5077876;28;20408;-81
2022/12/12 09:03:23;;;;;;;76.60;40.80;;;;;;;;;;5070111;28;20414;-81
2022/12/12 09:05:50;;;;;;;76.90;40.10;;;;;;;;;;5071821;28;20401;-82
2022/12/12 09:08:16;;;;;;;72.53;39.95;;;;;;;;;;5074777;28;20459;-81
2022/12/12 09:10:42;;;;;;;77.28;42.15;;;;;;;;;;5072075;28;20427;-83
2022/12/12 09:13:10;;;;;;;82.65;44.22;;;;;;;;;;5073636;28;20410;-81
2022/12/12 09:15:37;;;;;;;85.50;43.58;;;;;;;;;;5071713;28;20889;-81
2022/12/12 09:18:04;;;;;;;82.45;42.53;;;;;;;;;;5071327;28;20405;-81
2022/12/12 09:20:30;;;;;;;82.32;42.92;;;;;;;;;;5073147;28;20417;-80
2022/12/12 09:22:56;;;;;;;86.65;45.10;;;;;;;;;;5073268;28;20414;-82
2022/12/12 09:25:23;;;;;;;76.45;39.08;;;;;;;;;;5070932;28;20423;-82
2022/12/12 09:27:50;;;;;;;82.20;42.00;;;;;;;;;;5072112;28;20495;-81
2022/12/12 09:30:16;;;;;;;86.03;42.90;;;;;;;;;;5076082;28;20400;-81
2022/12/12 09:32:44;;;;;;;81.13;42.23;;;;;;;;;;5070306;28;20508;-81
2022/12/12 09:35:10;;;;;;;76.78;42.05;;;;;;;;;;5073200;28;20448;-81
2022/12/12 09:37:36;;;;;;;76.32;41.95;;;;;;;;;;5073068;28;20438;-81
2022/12/12 09:40:03;;;;;;;78.28;41.40;;;;;;;;;;5072248;28;20421;-82
2022/12/12 09:42:31;;;;;;;77.53;40.25;;;;;;;;;;5070005;28;20408;-81
2022/12/12 09:45:00;;;;;;;83.68;42.50;;;;;;;;;;5072864;28;20416;-82
2022/12/12 09:47:31;;;;;;;76.20;42.40;;;;;;;;;;5071662;28;20406;-81
2022/12/12 09:50:01;;;;;;;80.72;39.25;;;;;;;;;;5071270;28;20420;-82
2022/12/12 09:52:30;;;;;;;82.53;43.00;;;;;;;;;;5071513;28;20422;-82
2022/12/12 09:54:57;;;;;;;76.35;39.88;;;;;;;;;;5074761;28;20754;-81
2022/12/12 09:57:26;;;;;;;70.18;39.00;;;;;;;;;;5076811;28;20433;-81
2022/12/12 09:59:55;;;;;;;77.72;40.95;;;;;;;;;;5073602;28;20413;-81
2022/12/12 10:02:29;;;;;;;75.07;39.00;;;;;;;;;;5078266;28;20409;-81
2022/12/12 10:05:00;;;;;;;70.47;39.10;;;;;;;;;;5074955;28;20467;-81
2022/12/12 10:07:29;;;;;;;72.07;40.22;;;;;;;;;;5082365;28;20407;-81
2022/12/12 10:10:01;;;;;;;69.13;36.50;;;;;;;;;;5079958;28;20405;-82
2022/12/12 10:12:28;;;;;;;68.40;36.70;;;;;;;;;;5079991;28;20429;-81
2022/12/12 10:14:56;;;;;;;65.40;35.90;;;;;;;;;;5074453;28;20883;-84
2022/12/12 10:17:25;;;;;;;67.65;35.95;;;;;;;;;;5075050;28;21019;-81
2022/12/12 10:19:53;;;;;;;61.40;35.35;;;;;;;;;;5074479;28;20403;-81
2022/12/12 10:22:23;;;;;;;64.35;35.40;;;;;;;;;;5075240;28;20415;-81
2022/12/12 10:24:51;;;;;;;67.80;35.77;;;;;;;;;;5075553;28;20405;-81
2022/12/12 10:27:18;;;;;;;64.27;34.60;;;;;;;;;;5075851;28;20421;-81
2022/12/12 10:29:46;;;;;;;59.72;35.28;;;;;;;;;;5079516;28;20407;-81
2022/12/12 10:32:18;;;;;;;59.35;32.53;;;;;;;;;;5074133;28;20848;-81
2022/12/12 10:34:51;;;;;;;57.10;31.67;;;;;;;;;;5072577;28;20806;-81
2022/12/12 10:37:32;;;;;;;55.57;31.83;;;;;;;;;;5073503;28;21318;-81
2022/12/12 10:40:02;;;;;;;52.53;31.50;;;;;;;;;;5072141;28;20449;-81
2022/12/12 10:42:31;;;;;;;59.17;32.22;;;;;;;;;;5076309;28;20425;-81
2022/12/12 10:45:28;;;;;;;60.15;34.00;;;;;;;;;;5076972;28;20416;-81
2022/12/12 10:47:54;;;;;;;57.42;33.63;;;;;;;;;;4996161;28;20892;-81
2022/12/12 10:50:25;;;;;;;55.08;31.20;;;;;;;;;;5055015;28;20957;-82
2022/12/12 10:52:53;;;;;;;54.23;30.17;;;;;;;;;;5068602;28;20480;-82
2022/12/12 10:55:21;;;;;;;50.55;28.25;;;;;;;;;;5074417;28;20434;-82
2022/12/12 10:57:47;;;;;;;49.67;29.25;;;;;;;;;;5074353;28;20908;-83
2022/12/12 11:00:18;;;;;;;56.38;29.33;;;;;;;;;;5074084;28;20491;-82
2022/12/12 11:02:44;;;;;;;49.05;27.92;;;;;;;;;;5063290;28;20434;-82
2022/12/12 11:05:16;;;;;;;52.23;29.57;;;;;;;;;;5073666;28;20405;-82
2022/12/12 11:07:44;;;;;;;55.58;30.45;;;;;;;;;;5071540;28;20417;-81
2022/12/12 11:10:20;;;;;;;51.17;29.60;;;;;;;;;;5073126;28;20429;-82
2022/12/12 11:12:54;;;;;;;58.20;30.67;;;;;;;;;;5074971;28;20420;-82
2022/12/12 11:15:21;;;;;;;52.80;29.70;;;;;;;;;;5075678;28;20414;-82
2022/12/12 11:17:49;;;;;;;52.42;30.38;;;;;;;;;;5070868;28;20401;-81
2022/12/12 11:20:17;;;;;;;54.45;29.60;;;;;;;;;;5074060;28;20405;-82
2022/12/12 11:22:44;;;;;;;53.30;29.15;;;;;;;;;;5072890;28;20417;-81
2022/12/12 11:25:22;;;;;;;53.28;28.77;;;;;;;;;;5071541;28;20432;-82
2022/12/12 11:27:48;;;;;;;56.60;29.88;;;;;;;;;;5072638;28;20793;-82
2022/12/12 11:30:22;;;;;;;52.65;29.10;;;;;;;;;;5073777;28;20427;-83
2022/12/12 11:32:49;;;;;;;45.85;27.02;;;;;;;;;;5072130;28;20447;-81
2022/12/12 11:35:21;;;;;;;48.30;28.42;;;;;;;;;;5073047;28;20425;-82
2022/12/12 11:37:49;;;;;;;50.85;27.83;;;;;;;;;;5072537;28;21155;-81
2022/12/12 11:40:23;;;;;;;53.30;28.77;;;;;;;;;;5072289;28;20416;-82
2022/12/12 11:42:49;;;;;;;45.13;25.38;;;;;;;;;;5074890;28;20408;-83
2022/12/12 11:45:20;;;;;;;47.25;26.80;;;;;;;;;;5069086;28;20421;-83
2022/12/12 11:47:47;;;;;;;52.55;28.45;;;;;;;;;;5065911;28;20928;-83
2022/12/12 11:50:18;;;;;;;46.42;26.40;;;;;;;;;;5070059;28;20408;-83
2022/12/12 11:52:45;;;;;;;41.53;24.27;;;;;;;;;;5065957;28;20414;-83
2022/12/12 11:55:13;;;;;;;40.30;25.15;;;;;;;;;;5071072;28;20437;-83
2022/12/12 11:57:58;;;;;;;45.67;25.58;;;;;;;;;;5070227;28;20420;-83
2022/12/12 12:00:30;;;;;;;46.05;25.35;;;;;;;;;;5058090;28;20777;-81
2022/12/12 12:03:27;;;;;;;69.90;36.58;;;;;;;;;;5062703;28;20419;-81
2022/12/12 12:06:01;;;;;;;53.50;31.40;;;;;;;;;;5057551;28;20433;-81
2022/12/12 12:08:38;;;;;;;49.87;28.70;;;;;;;;;;5063868;28;20422;-81
2022/12/12 12:11:10;;;;;;;47.72;27.08;;;;;;;;;;5064172;28;20979;-81
2022/12/12 12:13:42;;;;;;;49.00;27.50;;;;;;;;;;5063891;28;20934;-81
2022/12/12 12:16:17;;;;;;;75.60;44.08;;;;;;;;;;5066349;28;20432;-81
2022/12/12 12:18:51;;;;;;;57.30;31.92;;;;;;;;;;5068519;28;20411;-81
2022/12/12 12:21:26;;;;;;;48.42;28.67;;;;;;;;;;5065966;28;20892;-81
2022/12/12 12:23:59;;;;;;;48.72;29.70;;;;;;;;;;5064864;28;20430;-81
2022/12/12 12:26:31;;;;;;;44.65;27.70;;;;;;;;;;5061257;28;20434;-81
2022/12/12 12:29:11;;;;;;;47.05;27.60;;;;;;;;;;5061225;28;20413;-81
2022/12/12 12:31:44;;;;;;;42.33;28.00;;;;;;;;;;5063538;28;20423;-81
2022/12/12 12:34:15;;;;;;;50.97;31.15;;;;;;;;;;5063709;28;20419;-81
2022/12/12 12:36:47;;;;;;;92.07;52.28;;;;;;;;;;5062260;28;20441;-81
2022/12/12 12:39:22;;;;;;;56.97;34.10;;;;;;;;;;5065664;28;20939;-81
2022/12/12 12:41:55;;;;;;;53.00;32.17;;;;;;;;;;5062974;28;20475;-81
2022/12/12 12:44:26;;;;;;;42.85;26.35;;;;;;;;;;5061792;28;20420;-81
2022/12/12 12:46:56;;;;;;;45.47;27.67;;;;;;;;;;5067247;28;20401;-80
2022/12/12 12:49:24;;;;;;;45.67;27.15;;;;;;;;;;5061425;28;20415;-80
2022/12/12 12:51:54;;;;;;;44.67;27.75;;;;;;;;;;5068742;28;20441;-81
2022/12/12 12:54:22;;;;;;;44.92;26.30;;;;;;;;;;5066328;28;20445;-81
2022/12/12 12:56:53;;;;;;;47.55;27.05;;;;;;;;;;5070336;28;20488;-81
2022/12/12 12:59:22;;;;;;;48.92;26.40;;;;;;;;;;5066752;28;20419;-82
2022/12/12 13:01:50;;;;;;;42.53;26.00;;;;;;;;;;5071201;28;20444;-81
2022/12/12 13:04:20;;;;;;;44.60;26.75;;;;;;;;;;5069573;28;20923;-81
2022/12/12 13:06:48;;;;;;;42.38;25.50;;;;;;;;;;5067974;28;20417;-81
2022/12/12 13:09:27;;;;;;;47.47;25.63;;;;;;;;;;5066104;28;20425;-81
2022/12/12 13:11:55;;;;;;;50.83;27.27;;;;;;;;;;5068945;28;20418;-81
2022/12/12 13:14:28;;;;;;;44.67;25.13;;;;;;;;;;5074373;28;20404;-81
2022/12/12 13:16:55;;;;;;;38.45;24.00;;;;;;;;;;5066390;28;20437;-82
2022/12/12 13:19:27;;;;;;;42.83;25.42;;;;;;;;;;5069161;28;20919;-81
2022/12/12 13:21:56;;;;;;;39.67;25.65;;;;;;;;;;5067838;28;20415;-81
2022/12/12 13:24:26;;;;;;;39.40;23.48;;;;;;;;;;5073822;28;20435;-81
2022/12/12 13:26:57;;;;;;;43.90;25.63;;;;;;;;;;5068534;28;20417;-81
2022/12/12 13:29:30;;;;;;;39.25;23.63;;;;;;;;;;5069577;28;20924;-81
2022/12/12 13:32:15;;;;;;;39.75;23.13;;;;;;;;;;5068227;28;20418;-81
2022/12/12 13:34:44;;;;;;;43.45;23.23;;;;;;;;;;5066586;28;20433;-81
2022/12/12 13:37:14;;;;;;;41.78;23.80;;;;;;;;;;5069177;28;20428;-81
2022/12/12 13:39:40;;;;;;;44.47;24.02;;;;;;;;;;5070394;28;20477;-81
2022/12/12 13:42:08;;;;;;;38.60;23.60;;;;;;;;;;5068749;28;20453;-81
2022/12/12 13:44:36;;;;;;;39.30;25.20;;;;;;;;;;5072528;28;20413;-81
2022/12/12 13:47:03;;;;;;;38.92;24.25;;;;;;;;;;5070213;28;20413;-81
2022/12/12 13:49:39;;;;;;;40.87;24.40;;;;;;;;;;5070104;28;20441;-81
2022/12/12 13:52:29;;;;;;;48.42;25.58;;;;;;;;;;5065055;28;20424;-81
2022/12/12 13:55:16;;;;;;;38.42;23.52;;;;;;;;;;5065329;28;20403;-81
2022/12/12 13:58:04;;;;;;;41.15;24.83;;;;;;;;;;5070091;28;20425;-81
2022/12/12 14:00:31;;;;;;;36.70;23.20;;;;;;;;;;5067854;28;20427;-81
2022/12/12 14:03:17;;;;;;;40.67;24.55;;;;;;;;;;5066915;28;20445;-81
2022/12/12 14:05:45;;;;;;;42.40;25.50;;;;;;;;;;5066935;28;20415;-81
2022/12/12 14:08:21;;;;;;;41.60;25.70;;;;;;;;;;5067549;28;20424;-81
2022/12/12 14:10:52;;;;;;;40.25;23.45;;;;;;;;;;5069461;28;20801;-81
2022/12/12 14:13:25;;;;;;;42.90;25.50;;;;;;;;;;5066518;28;20411;-81
2022/12/12 14:15:59;;;;;;;46.47;25.45;;;;;;;;;;5070367;28;20414;-81
2022/12/12 14:18:27;;;;;;;44.38;27.17;;;;;;;;;;5067090;28;20409;-82
2022/12/12 14:20:59;;;;;;;41.75;24.73;;;;;;;;;;5069811;28;20878;-81
2022/12/12 14:23:28;;;;;;;39.40;25.65;;;;;;;;;;5068640;28;20418;-81
2022/12/12 14:25:54;;;;;;;43.63;26.07;;;;;;;;;;5068204;28;21013;-81
2022/12/12 14:28:22;;;;;;;42.25;25.73;;;;;;;;;;5064713;28;20432;-81
2022/12/12 14:30:57;;;;;;;44.83;25.92;;;;;;;;;;5073052;28;20408;-82
2022/12/12 14:33:50;;;;;;;46.78;26.80;;;;;;;;;;5068569;28;20440;-81
2022/12/12 14:36:26;;;;;;;42.35;25.98;;;;;;;;;;5070549;28;20912;-81
2022/12/12 14:39:00;;;;;;;44.20;26.65;;;;;;;;;;5072385;28;20411;-81
2022/12/12 14:41:30;;;;;;;55.08;29.90;;;;;;;;;;5067010;28;20417;-81
2022/12/12 14:43:59;;;;;;;55.90;31.17;;;;;;;;;;5065784;28;20417;-81